Northfork River (Missouri), Tecumseh (07057500)

StateMissouriCurrentGood (684 cfs)
RiverNorthfork RiverFlood - The river is flooding. Obstacles can be treacherous or deadly. The river should be avoided at this stage for casual trips and definitely for the inexperienced. Trips should be attempted only with protective gear and equipment.Flood(none)
Updated2019-10-14 2:45 (1 hour ago)High - The river is high and potentially dangerous, especially for the young and / or inexperienced. Normal stream obstacles are sometimes difficult to navigate. Extended distances can be attempted, but canoe travel may not be advisable.High1000
Discharge684 cfs (median: 357 cfs)Good - Conditions are ideal for a canoe or kayak. Boats typically will drag on fewer than one-quarter of riffles, if at all, and portages are unnecessary or rare. Normal float lengths can be attempted without a problem.Good120
Height3.14 feetLow - River is low but can still be floated. Some riffles are okay but most come with significant dragging and might need a portage. Float lengths should be reduced to accommodate low flow, dragging, and portages.Low(none)
TrendFalling (falling over 24 hours)Poor - River is too low to float comfortably. Most or all riffles will drag or must be portaged and some obstacles (such as slick shelf rock) cause undue problems. Avoid the river at this stage for casual paddling trips.Poor(none)
USGSExternal icon USGS Site for Tecumseh (07057500)LocationExternal icon Google Maps

Trending Data

Plot Image
ObservationHeightDischargeMaximum
Discharge
Minimum
Discharge
Mean
Discharge
P05P10P20P25P50
(Median)
P75P80P90P95
2019-10-14 02:45 3.14 684 2180 (1960) 205 (1957) 426 243 262 291 297 357 450 474 653 969
2019-10-14 01:45 3.15 691 2180 (1960) 205 (1957) 426 243 262 291 297 357 450 474 653 969
2019-10-14 00:45 3.16 699 2180 (1960) 205 (1957) 426 243 262 291 297 357 450 474 653 969
2019-10-13 23:45 3.16 699 1130 (2010) 209 (1957) 398 243 259 295 300 360 435 459 551 819
2019-10-13 22:45 3.17 706 1130 (2010) 209 (1957) 398 243 259 295 300 360 435 459 551 819
2019-10-13 21:45 3.19 720 1130 (2010) 209 (1957) 398 243 259 295 300 360 435 459 551 819
2019-10-13 20:45 3.20 727 1130 (2010) 209 (1957) 398 243 259 295 300 360 435 459 551 819
2019-10-13 19:45 3.20 727 1130 (2010) 209 (1957) 398 243 259 295 300 360 435 459 551 819
2019-10-13 18:45 3.20 727 1130 (2010) 209 (1957) 398 243 259 295 300 360 435 459 551 819
2019-10-13 17:45 3.21 735 1130 (2010) 209 (1957) 398 243 259 295 300 360 435 459 551 819
2019-10-13 16:45 3.22 742 1130 (2010) 209 (1957) 398 243 259 295 300 360 435 459 551 819
2019-10-13 15:45 3.23 749 1130 (2010) 209 (1957) 398 243 259 295 300 360 435 459 551 819
2019-10-13 14:45 3.24 757 1130 (2010) 209 (1957) 398 243 259 295 300 360 435 459 551 819
2019-10-13 13:45 3.25 764 1130 (2010) 209 (1957) 398 243 259 295 300 360 435 459 551 819
2019-10-13 12:45 3.26 771 1130 (2010) 209 (1957) 398 243 259 295 300 360 435 459 551 819
2019-10-13 11:45 3.27 779 1130 (2010) 209 (1957) 398 243 259 295 300 360 435 459 551 819
2019-10-13 10:45 3.28 786 1130 (2010) 209 (1957) 398 243 259 295 300 360 435 459 551 819
2019-10-13 09:45 3.28 786 1130 (2010) 209 (1957) 398 243 259 295 300 360 435 459 551 819
2019-10-13 08:45 3.30 802 1130 (2010) 209 (1957) 398 243 259 295 300 360 435 459 551 819
2019-10-13 07:45 3.32 817 1130 (2010) 209 (1957) 398 243 259 295 300 360 435 459 551 819
2019-10-13 06:45 3.33 825 1130 (2010) 209 (1957) 398 243 259 295 300 360 435 459 551 819
2019-10-13 05:45 3.35 840 1130 (2010) 209 (1957) 398 243 259 295 300 360 435 459 551 819
2019-10-13 04:45 3.36 848 1130 (2010) 209 (1957) 398 243 259 295 300 360 435 459 551 819
2019-10-13 03:45 3.37 856 1130 (2010) 209 (1957) 398 243 259 295 300 360 435 459 551 819
2019-10-13 02:45 3.39 872 1130 (2010) 209 (1957) 398 243 259 295 300 360 435 459 551 819
2019-10-13 01:45 3.40 880 1130 (2010) 209 (1957) 398 243 259 295 300 360 435 459 551 819
2019-10-13 00:45 3.41 888 1130 (2010) 209 (1957) 398 243 259 295 300 360 435 459 551 819
2019-10-12 23:45 3.43 904 1340 (2010) 209 (1957) 394 242 262 297 302 362 427 447 508 811
2019-10-12 22:45 3.44 912 1340 (2010) 209 (1957) 394 242 262 297 302 362 427 447 508 811
2019-10-12 21:45 3.47 937 1340 (2010) 209 (1957) 394 242 262 297 302 362 427 447 508 811
2019-10-12 20:45 3.48 945 1340 (2010) 209 (1957) 394 242 262 297 302 362 427 447 508 811
2019-10-12 19:45 3.50 962 1340 (2010) 209 (1957) 394 242 262 297 302 362 427 447 508 811
2019-10-12 18:45 3.52 979 1340 (2010) 209 (1957) 394 242 262 297 302 362 427 447 508 811
2019-10-12 17:45 3.54 996 1340 (2010) 209 (1957) 394 242 262 297 302 362 427 447 508 811
2019-10-12 16:45 3.56 1010 1340 (2010) 209 (1957) 394 242 262 297 302 362 427 447 508 811
2019-10-12 15:45 3.60 1050 1340 (2010) 209 (1957) 394 242 262 297 302 362 427 447 508 811
2019-10-12 14:45 3.63 1070 1340 (2010) 209 (1957) 394 242 262 297 302 362 427 447 508 811
2019-10-12 13:45 3.64 1080 1340 (2010) 209 (1957) 394 242 262 297 302 362 427 447 508 811
2019-10-12 12:45 3.68 1120 1340 (2010) 209 (1957) 394 242 262 297 302 362 427 447 508 811
2019-10-12 11:45 3.71 1150 1340 (2010) 209 (1957) 394 242 262 297 302 362 427 447 508 811
2019-10-12 10:45 3.74 1180 1340 (2010) 209 (1957) 394 242 262 297 302 362 427 447 508 811
2019-10-12 09:45 3.79 1220 1340 (2010) 209 (1957) 394 242 262 297 302 362 427 447 508 811
2019-10-12 08:45 3.83 1260 1340 (2010) 209 (1957) 394 242 262 297 302 362 427 447 508 811
2019-10-12 07:45 3.88 1310 1340 (2010) 209 (1957) 394 242 262 297 302 362 427 447 508 811
2019-10-12 06:45 3.92 1350 1340 (2010) 209 (1957) 394 242 262 297 302 362 427 447 508 811
2019-10-12 05:45 3.96 1390 1340 (2010) 209 (1957) 394 242 262 297 302 362 427 447 508 811
2019-10-12 04:45 4.01 1440 1340 (2010) 209 (1957) 394 242 262 297 302 362 427 447 508 811
2019-10-12 03:45 4.07 1510 1340 (2010) 209 (1957) 394 242 262 297 302 362 427 447 508 811
2019-10-12 02:45 4.11 1550 1340 (2010) 209 (1957) 394 242 262 297 302 362 427 447 508 811
2019-10-12 01:45 4.11 1550 1340 (2010) 209 (1957) 394 242 262 297 302 362 427 447 508 811
2019-10-12 00:45 4.08 1520 1340 (2010) 209 (1957) 394 242 262 297 302 362 427 447 508 811
2019-10-11 23:45 3.96 1390 1850 (2010) 202 (1955) 407 237 260 292 302 360 425 452 532 730
2019-10-11 22:45 3.71 1150 1850 (2010) 202 (1955) 407 237 260 292 302 360 425 452 532 730
2019-10-11 21:45 3.41 888 1850 (2010) 202 (1955) 407 237 260 292 302 360 425 452 532 730
2019-10-11 20:45 3.33 825 1850 (2010) 202 (1955) 407 237 260 292 302 360 425 452 532 730
2019-10-11 19:45 3.31 809 1850 (2010) 202 (1955) 407 237 260 292 302 360 425 452 532 730
2019-10-11 18:45 3.28 786 1850 (2010) 202 (1955) 407 237 260 292 302 360 425 452 532 730
2019-10-11 17:45 3.28 786 1850 (2010) 202 (1955) 407 237 260 292 302 360 425 452 532 730
2019-10-11 16:45 3.27 779 1850 (2010) 202 (1955) 407 237 260 292 302 360 425 452 532 730
2019-10-11 15:45 3.25 764 1850 (2010) 202 (1955) 407 237 260 292 302 360 425 452 532 730
2019-10-11 14:45 3.22 742 1850 (2010) 202 (1955) 407 237 260 292 302 360 425 452 532 730
2019-10-11 13:45 3.19 720 1850 (2010) 202 (1955) 407 237 260 292 302 360 425 452 532 730
2019-10-11 12:45 3.13 677 1850 (2010) 202 (1955) 407 237 260 292 302 360 425 452 532 730
2019-10-11 11:45 3.10 658 1850 (2010) 202 (1955) 407 237 260 292 302 360 425 452 532 730
2019-10-11 10:45 3.06 632 1850 (2010) 202 (1955) 407 237 260 292 302 360 425 452 532 730
2019-10-11 09:45 3.04 620 1850 (2010) 202 (1955) 407 237 260 292 302 360 425 452 532 730
2019-10-11 08:45 3.01 601 1850 (2010) 202 (1955) 407 237 260 292 302 360 425 452 532 730
2019-10-11 07:45 2.97 577 1850 (2010) 202 (1955) 407 237 260 292 302 360 425 452 532 730
2019-10-11 06:45 2.92 547 1850 (2010) 202 (1955) 407 237 260 292 302 360 425 452 532 730
2019-10-11 05:45 2.87 519 1850 (2010) 202 (1955) 407 237 260 292 302 360 425 452 532 730
2019-10-11 04:45 2.83 496 1850 (2010) 202 (1955) 407 237 260 292 302 360 425 452 532 730
2019-10-11 03:45 2.79 474 1850 (2010) 202 (1955) 407 237 260 292 302 360 425 452 532 730
2019-10-11 02:45 2.76 458 1850 (2010) 202 (1955) 407 237 260 292 302 360 425 452 532 730
2019-10-11 01:45 2.74 448 1850 (2010) 202 (1955) 407 237 260 292 302 360 425 452 532 730
2019-10-11 00:45 2.74 448 1850 (2010) 202 (1955) 407 237 260 292 302 360 425 452 532 730
2019-10-10 23:45 2.74 448 3300 (2010) 198 (1955) 417 239 260 282 302 355 415 448 571 671
2019-10-10 22:45 2.73 443 3300 (2010) 198 (1955) 417 239 260 282 302 355 415 448 571 671
2019-10-10 21:45 2.73 443 3300 (2010) 198 (1955) 417 239 260 282 302 355 415 448 571 671
2019-10-10 20:45 2.72 438 3300 (2010) 198 (1955) 417 239 260 282 302 355 415 448 571 671
2019-10-10 19:45 2.72 438 3300 (2010) 198 (1955) 417 239 260 282 302 355 415 448 571 671
2019-10-10 18:45 2.72 438 3300 (2010) 198 (1955) 417 239 260 282 302 355 415 448 571 671
2019-10-10 17:45 2.72 438 3300 (2010) 198 (1955) 417 239 260 282 302 355 415 448 571 671
2019-10-10 16:45 2.72 438 3300 (2010) 198 (1955) 417 239 260 282 302 355 415 448 571 671
2019-10-10 15:45 2.72 438 3300 (2010) 198 (1955) 417 239 260 282 302 355 415 448 571 671
2019-10-10 14:45 2.72 438 3300 (2010) 198 (1955) 417 239 260 282 302 355 415 448 571 671
2019-10-10 13:45 2.73 443 3300 (2010) 198 (1955) 417 239 260 282 302 355 415 448 571 671
2019-10-10 12:45 2.73 443 3300 (2010) 198 (1955) 417 239 260 282 302 355 415 448 571 671
2019-10-10 11:45 2.73 443 3300 (2010) 198 (1955) 417 239 260 282 302 355 415 448 571 671
2019-10-10 10:45 2.73 443 3300 (2010) 198 (1955) 417 239 260 282 302 355 415 448 571 671
2019-10-10 09:45 2.73 443 3300 (2010) 198 (1955) 417 239 260 282 302 355 415 448 571 671
2019-10-10 08:45 2.73 443 3300 (2010) 198 (1955) 417 239 260 282 302 355 415 448 571 671
2019-10-10 07:45 2.73 443 3300 (2010) 198 (1955) 417 239 260 282 302 355 415 448 571 671
2019-10-10 06:45 2.73 443 3300 (2010) 198 (1955) 417 239 260 282 302 355 415 448 571 671
2019-10-10 05:45 2.73 443 3300 (2010) 198 (1955) 417 239 260 282 302 355 415 448 571 671
2019-10-10 04:45 2.74 448 3300 (2010) 198 (1955) 417 239 260 282 302 355 415 448 571 671
2019-10-10 03:45 2.74 448 3300 (2010) 198 (1955) 417 239 260 282 302 355 415 448 571 671
2019-10-10 02:45 2.74 448 3300 (2010) 198 (1955) 417 239 260 282 302 355 415 448 571 671
2019-10-10 01:45 2.75 453 3300 (2010) 198 (1955) 417 239 260 282 302 355 415 448 571 671
2019-10-10 00:45 2.75 453 3300 (2010) 198 (1955) 417 239 260 282 302 355 415 448 571 671
2019-10-09 23:45 2.75 453 4160 (2010) 198 (1955) 431 240 261 285 302 351 414 442 590 746
2019-10-09 22:45 2.75 453 4160 (2010) 198 (1955) 431 240 261 285 302 351 414 442 590 746
2019-10-09 21:45 2.75 453 4160 (2010) 198 (1955) 431 240 261 285 302 351 414 442 590 746
2019-10-09 20:45 2.75 453 4160 (2010) 198 (1955) 431 240 261 285 302 351 414 442 590 746
2019-10-09 19:45 2.75 453 4160 (2010) 198 (1955) 431 240 261 285 302 351 414 442 590 746
2019-10-09 18:45 2.75 453 4160 (2010) 198 (1955) 431 240 261 285 302 351 414 442 590 746
2019-10-09 17:45 2.76 458 4160 (2010) 198 (1955) 431 240 261 285 302 351 414 442 590 746
2019-10-09 16:45 2.76 458 4160 (2010) 198 (1955) 431 240 261 285 302 351 414 442 590 746
2019-10-09 15:45 2.76 458 4160 (2010) 198 (1955) 431 240 261 285 302 351 414 442 590 746
2019-10-09 14:45 2.76 458 4160 (2010) 198 (1955) 431 240 261 285 302 351 414 442 590 746
2019-10-09 13:45 2.76 458 4160 (2010) 198 (1955) 431 240 261 285 302 351 414 442 590 746
2019-10-09 12:45 2.76 458 4160 (2010) 198 (1955) 431 240 261 285 302 351 414 442 590 746
2019-10-09 11:45 2.76 458 4160 (2010) 198 (1955) 431 240 261 285 302 351 414 442 590 746
2019-10-09 10:45 2.76 458 4160 (2010) 198 (1955) 431 240 261 285 302 351 414 442 590 746
2019-10-09 09:45 2.77 464 4160 (2010) 198 (1955) 431 240 261 285 302 351 414 442 590 746
2019-10-09 08:45 2.77 464 4160 (2010) 198 (1955) 431 240 261 285 302 351 414 442 590 746
2019-10-09 07:45 2.77 464 4160 (2010) 198 (1955) 431 240 261 285 302 351 414 442 590 746
2019-10-09 06:45 2.77 464 4160 (2010) 198 (1955) 431 240 261 285 302 351 414 442 590 746
2019-10-09 05:45 2.77 464 4160 (2010) 198 (1955) 431 240 261 285 302 351 414 442 590 746
2019-10-09 04:45 2.78 469 4160 (2010) 198 (1955) 431 240 261 285 302 351 414 442 590 746
2019-10-09 03:45 2.79 474 4160 (2010) 198 (1955) 431 240 261 285 302 351 414 442 590 746
2019-10-09 02:45 2.79 474 4160 (2010) 198 (1955) 431 240 261 285 302 351 414 442 590 746
2019-10-09 01:45 2.79 474 4160 (2010) 198 (1955) 431 240 261 285 302 351 414 442 590 746
2019-10-09 00:45 2.80 480 4160 (2010) 198 (1955) 431 240 261 285 302 351 414 442 590 746
2019-10-08 23:45 2.80 480 1100 (1991) 198 (1955) 395 243 262 284 302 352 415 439 551 884
2019-10-08 22:45 2.80 480 1100 (1991) 198 (1955) 395 243 262 284 302 352 415 439 551 884
2019-10-08 21:45 2.80 480 1100 (1991) 198 (1955) 395 243 262 284 302 352 415 439 551 884
2019-10-08 20:45 2.80 480 1100 (1991) 198 (1955) 395 243 262 284 302 352 415 439 551 884
2019-10-08 19:45 2.80 480 1100 (1991) 198 (1955) 395 243 262 284 302 352 415 439 551 884
2019-10-08 18:45 2.80 480 1100 (1991) 198 (1955) 395 243 262 284 302 352 415 439 551 884
2019-10-08 17:45 2.81 485 1100 (1991) 198 (1955) 395 243 262 284 302 352 415 439 551 884
2019-10-08 16:45 2.82 491 1100 (1991) 198 (1955) 395 243 262 284 302 352 415 439 551 884
2019-10-08 15:45 2.83 496 1100 (1991) 198 (1955) 395 243 262 284 302 352 415 439 551 884
2019-10-08 14:45 2.83 496 1100 (1991) 198 (1955) 395 243 262 284 302 352 415 439 551 884
2019-10-08 13:45 2.83 496 1100 (1991) 198 (1955) 395 243 262 284 302 352 415 439 551 884
2019-10-08 12:45 2.84 502 1100 (1991) 198 (1955) 395 243 262 284 302 352 415 439 551 884
2019-10-08 11:45 2.84 502 1100 (1991) 198 (1955) 395 243 262 284 302 352 415 439 551 884
2019-10-08 10:45 2.84 502 1100 (1991) 198 (1955) 395 243 262 284 302 352 415 439 551 884
2019-10-08 09:45 2.85 507 1100 (1991) 198 (1955) 395 243 262 284 302 352 415 439 551 884
2019-10-08 08:45 2.85 507 1100 (1991) 198 (1955) 395 243 262 284 302 352 415 439 551 884
2019-10-08 07:45 2.85 507 1100 (1991) 198 (1955) 395 243 262 284 302 352 415 439 551 884
2019-10-08 06:45 2.86 513 1100 (1991) 198 (1955) 395 243 262 284 302 352 415 439 551 884
2019-10-08 05:45 2.87 519 1100 (1991) 198 (1955) 395 243 262 284 302 352 415 439 551 884
2019-10-08 04:45 2.88 524 1100 (1991) 198 (1955) 395 243 262 284 302 352 415 439 551 884
2019-10-08 03:45 2.88 524 1100 (1991) 198 (1955) 395 243 262 284 302 352 415 439 551 884
2019-10-08 02:45 2.88 524 1100 (1991) 198 (1955) 395 243 262 284 302 352 415 439 551 884
2019-10-08 01:45 2.88 524 1100 (1991) 198 (1955) 395 243 262 284 302 352 415 439 551 884
2019-10-08 00:45 2.89 530 1100 (1991) 198 (1955) 395 243 262 284 302 352 415 439 551 884
2019-10-07 23:45 2.90 536 1700 (1999) 198 (1955) 408 243 262 279 300 352 423 441 570 960
2019-10-07 22:45 2.91 542 1700 (1999) 198 (1955) 408 243 262 279 300 352 423 441 570 960
2019-10-07 21:45 2.91 542 1700 (1999) 198 (1955) 408 243 262 279 300 352 423 441 570 960
2019-10-07 20:45 2.92 547 1700 (1999) 198 (1955) 408 243 262 279 300 352 423 441 570 960
2019-10-07 19:45 2.92 547 1700 (1999) 198 (1955) 408 243 262 279 300 352 423 441 570 960
2019-10-07 18:45 2.92 547 1700 (1999) 198 (1955) 408 243 262 279 300 352 423 441 570 960
2019-10-07 17:45 2.92 547 1700 (1999) 198 (1955) 408 243 262 279 300 352 423 441 570 960
2019-10-07 16:45 2.93 553 1700 (1999) 198 (1955) 408 243 262 279 300 352 423 441 570 960
2019-10-07 15:45 2.93 553 1700 (1999) 198 (1955) 408 243 262 279 300 352 423 441 570 960
2019-10-07 14:45 2.94 559 1700 (1999) 198 (1955) 408 243 262 279 300 352 423 441 570 960
2019-10-07 13:45 2.95 565 1700 (1999) 198 (1955) 408 243 262 279 300 352 423 441 570 960
2019-10-07 12:45 2.95 565 1700 (1999) 198 (1955) 408 243 262 279 300 352 423 441 570 960
2019-10-07 11:45 2.95 565 1700 (1999) 198 (1955) 408 243 262 279 300 352 423 441 570 960
2019-10-07 10:45 2.95 565 1700 (1999) 198 (1955) 408 243 262 279 300 352 423 441 570 960
2019-10-07 09:45 2.96 571 1700 (1999) 198 (1955) 408 243 262 279 300 352 423 441 570 960
2019-10-07 08:45 2.96 571 1700 (1999) 198 (1955) 408 243 262 279 300 352 423 441 570 960
2019-10-07 07:45 2.96 571 1700 (1999) 198 (1955) 408 243 262 279 300 352 423 441 570 960
2019-10-07 06:45 2.96 571 1700 (1999) 198 (1955) 408 243 262 279 300 352 423 441 570 960
2019-10-07 05:45 2.96 571 1700 (1999) 198 (1955) 408 243 262 279 300 352 423 441 570 960
2019-10-07 04:45 2.96 571 1700 (1999) 198 (1955) 408 243 262 279 300 352 423 441 570 960
2019-10-07 03:45 2.96 571 1700 (1999) 198 (1955) 408 243 262 279 300 352 423 441 570 960
2019-10-07 02:45 2.96 571 1700 (1999) 198 (1955) 408 243 262 279 300 352 423 441 570 960
2019-10-07 01:45 2.96 571 1700 (1999) 198 (1955) 408 243 262 279 300 352 423 441 570 960
2019-10-07 00:45 2.95 565 1700 (1999) 198 (1955) 408 243 262 279 300 352 423 441 570 960

A total of 171 rows are displayed for years 1945 through 2018.

Trips for Northfork River (Missouri), Tecumseh (07057500)

DateStartEndDistanceConditionDischargeHeightFishingDetails
Click for details2015-07-18 Hammond Sunburst Total trip distance: 10.7 miles10.7 High 1230 3.65 None NoneNone Eth, Joe
Gowers, Sam
Eth, Joe; Gowers, Sam
No notes for this trip<i>No notes for this trip</i> USGS Gauge Data:
Tecumseh (07057500)
Discharge: 1230
Height: 3.65
<b>USGS Gauge Data:</b></br />Tecumseh (07057500)<br />Discharge: 1230<br />Height: 3.65
Source: EthSource: Eth
Click for details2002-06-08 Blair Dawt Total trip distance: 7.6 miles7.6 Good 811 3.23 None NoneNone Edmond, Alex
Edmond, Brian
Edmond, Kellie
Edmond, Joseph
Edmond, Alex; Edmond, Brian; Edmond, Kellie; Edmond, Joseph
No notes for this trip<i>No notes for this trip</i> USGS Gauge Data:
Tecumseh (07057500)
Discharge: 811
Height: 3.23
<b>USGS Gauge Data:</b></br />Tecumseh (07057500)<br />Discharge: 811<br />Height: 3.23
Source: EdmondSource: Edmond
Click for details2016-08-27 Hale Twin Bridges Total trip distance: 9.3 miles9.3 Good 538 2.76 Good LSF
SMB
LSF, SMB
Dudenhoeffer, Todd
Edmond, Brian
Larsen, Chris
Larsen, Lisa
Moler, Leta
Travers, Gina
Van Someren, Cynthia
Van Someren, Tom
Dudenhoeffer, Todd; Edmond, Brian; Larsen, Chris; Larsen, Lisa; Moler, Leta; Travers, Gina; Van Someren, Cynthia; Van Someren, Tom
This was a good float but the water was almost too low to be considered good. Another 4" to 6" of water would have been much better if not ideal. There were several long, still pools on this stretch. Very few other floaters were encountered.This was a good float but the water was almost too low to be considered good. Another 4 USGS Gauge Data:
Tecumseh (07057500)
Discharge: 538
Height: 2.76
<b>USGS Gauge Data:</b></br />Tecumseh (07057500)<br />Discharge: 538<br />Height: 2.76
Source: EdmondSource: Edmond
Click for details2007-06-09 Hebron Hammond Total trip distance: 10.5 miles10.5 Good 508 2.77 None NoneNone Bowe, Michelle
Edmond, Brian
Bowe, Michelle; Edmond, Brian
No notes for this trip<i>No notes for this trip</i> USGS Gauge Data:
Tecumseh (07057500)
Discharge: 508
Height: 2.77
<b>USGS Gauge Data:</b></br />Tecumseh (07057500)<br />Discharge: 508<br />Height: 2.77
Source: EdmondSource: Edmond
Click for details2005-06-04 Blair Dawt Total trip distance: 7.6 miles7.6 Good 428 2.62 None NoneNone Breshears, Julie
Edmond, Brian
Breshears, Julie; Edmond, Brian
No notes for this trip<i>No notes for this trip</i> USGS Gauge Data:
Tecumseh (07057500)
Discharge: 428
Height: 2.62
<b>USGS Gauge Data:</b></br />Tecumseh (07057500)<br />Discharge: 428<br />Height: 2.62
Source: EdmondSource: Edmond
Click for details2006-07-07 Kelly Ford Riverside Total trip distance: 7.6 miles7.6 Good 363 2.50 None NoneNone Edmond, Brian
Frese, Heather
Frese, Paul
Rueter, Kelly
Rueter, Ryan
Edmond, Brian; Frese, Heather; Frese, Paul; Rueter, Kelly; Rueter, Ryan
No notes for this trip<i>No notes for this trip</i> USGS Gauge Data:
Tecumseh (07057500)
Discharge: 363
Height: 2.50
<b>USGS Gauge Data:</b></br />Tecumseh (07057500)<br />Discharge: 363<br />Height: 2.50
Source: EdmondSource: Edmond
Click for details2004-08-07 Hammond Sunburst Total trip distance: 10.7 miles10.7 Good 354 2.46 None NoneNone Edmond, Brian
Eth, Joe
Edmond, Brian; Eth, Joe
No notes for this trip<i>No notes for this trip</i> USGS Gauge Data:
Tecumseh (07057500)
Discharge: 354
Height: 2.46
<b>USGS Gauge Data:</b></br />Tecumseh (07057500)<br />Discharge: 354<br />Height: 2.46
Source: EdmondSource: Edmond
Click for details2003-08-10 Hammond Sunburst Total trip distance: 10.7 miles10.7 Good 282 2.30 None NoneNone Edmond, Brian
Wolfe, Melanie
Edmond, Brian; Wolfe, Melanie
No notes for this trip<i>No notes for this trip</i> USGS Gauge Data:
Tecumseh (07057500)
Discharge: 282
Height: 2.30
<b>USGS Gauge Data:</b></br />Tecumseh (07057500)<br />Discharge: 282<br />Height: 2.30
Source: EdmondSource: Edmond

A total of 8 rows are displayed.

Trip Summary for Northfork River (Missouri), Tecumseh (07057500)

Miles74.7
Trips8
People20
Dates8
Years8
Months3
Rows8
Sources2

Condition Descriptions

Fishing Conditions

Fish Species

Notes

Classic Trip List

The classic River Trips application is still available for use. It is updated with the new system using a data retrofit. It is no longer maintained. The original River Trips application is no longer updated (as of 1 Dec 2016) but can be checked for errors or for the condition of the data before it was converted to the new system.